createdAt,value
2018-03-03T00:02:20.858Z,99098.69
2018-03-03T00:04:48.309Z,99094.87
2018-03-03T00:07:16.750Z,99090.39
2018-03-03T00:09:45.845Z,99101.37
2018-03-03T00:12:13.382Z,99104.73
2018-03-03T00:14:40.869Z,99102.03
2018-03-03T00:17:08.391Z,99102.22
2018-03-03T00:19:35.857Z,99099.73
2018-03-03T00:22:03.355Z,99107.81
2018-03-03T00:24:30.842Z,99102.26
2018-03-03T00:26:59.011Z,99103.70
2018-03-03T00:29:27.287Z,99098.14
2018-03-03T00:31:54.736Z,99103.25
2018-03-03T00:34:22.178Z,99102.91
2018-03-03T00:36:49.686Z,99107.91
2018-03-03T00:39:17.326Z,99105.58
2018-03-03T00:41:44.770Z,99101.95
2018-03-03T00:44:12.253Z,99095.25
2018-03-03T00:46:39.731Z,99093.16
2018-03-03T00:49:07.183Z,99088.27
2018-03-03T00:51:34.626Z,99095.84
2018-03-03T00:54:02.122Z,99093.47
2018-03-03T00:56:29.578Z,99086.70
2018-03-03T00:58:57.059Z,99093.04
2018-03-03T01:01:24.516Z,99092.00
2018-03-03T01:03:52.015Z,99096.16
2018-03-03T01:06:19.472Z,99096.16
2018-03-03T01:08:46.904Z,99097.95
2018-03-03T01:11:14.382Z,99098.14
2018-03-03T01:13:41.823Z,99098.94
2018-03-03T01:16:14.292Z,99096.91
2018-03-03T01:18:41.744Z,99086.42
2018-03-03T01:21:09.228Z,99094.34
2018-03-03T01:23:36.688Z,99083.09
2018-03-03T01:26:04.153Z,99093.97
2018-03-03T01:28:31.591Z,99090.45
2018-03-03T01:30:59.098Z,99093.39
2018-03-03T01:33:26.529Z,99090.45
2018-03-03T01:35:54.005Z,99088.88
2018-03-03T01:38:21.482Z,99091.30
2018-03-03T01:40:48.923Z,99092.52
2018-03-03T01:43:16.399Z,99095.38
2018-03-03T01:45:43.832Z,99092.58
2018-03-03T01:48:11.296Z,99092.33
2018-03-03T01:50:38.760Z,99088.80
2018-03-03T01:53:06.198Z,99091.48
2018-03-03T01:55:33.661Z,99090.23
2018-03-03T01:58:01.154Z,99088.89
2018-03-03T02:00:28.654Z,99088.35
2018-03-03T02:02:56.132Z,99086.66
2018-03-03T02:05:23.592Z,99091.88
2018-03-03T02:07:51.050Z,99093.93
2018-03-03T02:10:18.548Z,99098.80
2018-03-03T02:12:46.107Z,99101.10
2018-03-03T02:15:13.539Z,99089.62
2018-03-03T02:17:41.012Z,99096.94
2018-03-03T02:20:08.460Z,99099.02
2018-03-03T02:22:35.910Z,99102.16
2018-03-03T02:25:03.457Z,99100.83
2018-03-03T02:27:30.902Z,99106.84
2018-03-03T02:29:58.390Z,99102.29
2018-03-03T02:32:25.841Z,99097.12
2018-03-03T02:34:53.305Z,99106.02
2018-03-03T02:37:20.772Z,99102.50
2018-03-03T02:39:48.238Z,99103.71
2018-03-03T02:42:15.668Z,99098.88
2018-03-03T02:44:43.111Z,99099.37
2018-03-03T02:47:10.562Z,99100.48
2018-03-03T02:49:37.994Z,99100.98
2018-03-03T02:52:05.452Z,99105.68
2018-03-03T02:54:32.894Z,99107.44
2018-03-03T02:57:00.373Z,99110.34
2018-03-03T02:59:27.809Z,99110.25
2018-03-03T03:01:55.235Z,99109.19
2018-03-03T03:04:22.668Z,99106.98
2018-03-03T03:06:50.110Z,99112.67
2018-03-03T03:09:17.596Z,99120.80
2018-03-03T03:11:45.037Z,99118.31
2018-03-03T03:14:12.577Z,99108.03
2018-03-03T03:16:40.134Z,99107.45
2018-03-03T03:19:07.534Z,99106.00
2018-03-03T03:21:34.982Z,99105.78
2018-03-03T03:24:02.436Z,99098.52
2018-03-03T03:26:29.860Z,99096.71
2018-03-03T03:28:57.291Z,99093.84
2018-03-03T03:31:24.997Z,99087.48
2018-03-03T03:33:52.460Z,99081.94
2018-03-03T03:36:21.978Z,99083.62
2018-03-03T03:38:49.898Z,99084.00
2018-03-03T03:41:18.162Z,99082.70
2018-03-03T03:43:45.650Z,99076.36
2018-03-03T03:46:13.106Z,99074.34
2018-03-03T03:48:40.542Z,99068.83
2018-03-03T03:51:07.996Z,99075.98
2018-03-03T03:53:35.446Z,99072.69
2018-03-03T03:56:02.916Z,99064.16
2018-03-03T03:58:30.407Z,99076.27
2018-03-03T04:00:57.831Z,99069.34
2018-03-03T04:03:25.290Z,99070.30
2018-03-03T04:05:52.760Z,99071.58
2018-03-03T04:08:20.231Z,99074.93
2018-03-03T04:10:47.676Z,99072.88
2018-03-03T04:13:15.132Z,99071.16
2018-03-03T04:15:42.576Z,99074.83
2018-03-03T04:18:10.068Z,99063.13
2018-03-03T04:20:37.520Z,99063.12
2018-03-03T04:23:05.000Z,99065.39
2018-03-03T04:25:32.474Z,99068.38
2018-03-03T04:27:59.914Z,99060.86
2018-03-03T04:30:28.570Z,99063.83
2018-03-03T04:32:56.063Z,99062.92
2018-03-03T04:35:23.536Z,99056.09
2018-03-03T04:37:51.012Z,99052.11
2018-03-03T04:40:19.358Z,99049.74
2018-03-03T04:42:46.832Z,99049.96
2018-03-03T04:45:15.044Z,99053.23
2018-03-03T04:47:42.512Z,99047.06
2018-03-03T04:50:09.970Z,99045.78
2018-03-03T04:52:37.427Z,99040.91
2018-03-03T04:55:05.099Z,99037.92
2018-03-03T04:57:32.906Z,99040.43
2018-03-03T05:00:07.119Z,99042.92
2018-03-03T05:02:40.178Z,99033.87
2018-03-03T05:08:22.569Z,99024.55
2018-03-03T05:10:50.432Z,99020.24
2018-03-03T05:13:33.698Z,99021.97
2018-03-03T05:19:08.468Z,99004.17
2018-03-03T05:21:37.476Z,99004.00
2018-03-03T05:27:25.291Z,99002.63
2018-03-03T05:29:58.403Z,98999.36
2018-03-03T05:35:42.360Z,98985.58
2018-03-03T05:38:11.190Z,98985.70
2018-03-03T05:40:44.264Z,98983.71
2018-03-03T05:43:17.265Z,98994.23
2018-03-03T05:45:50.399Z,98990.78
2018-03-03T05:48:22.411Z,98997.60
2018-03-03T05:50:55.611Z,98998.00
2018-03-03T05:53:33.017Z,98988.09
2018-03-03T05:58:58.426Z,98982.52
2018-03-03T06:01:43.672Z,98989.06
2018-03-03T06:04:15.186Z,98991.53
2018-03-03T06:07:00.433Z,98990.05
2018-03-03T06:09:28.754Z,98984.80
2018-03-03T06:11:56.247Z,98994.14
2018-03-03T06:14:23.737Z,98993.84
2018-03-03T06:16:51.241Z,98988.79
2018-03-03T06:19:18.771Z,98996.63
2018-03-03T06:21:46.279Z,99002.87
2018-03-03T06:24:13.765Z,99008.81
2018-03-03T06:26:41.286Z,99012.52
2018-03-03T06:29:08.761Z,99019.86
2018-03-03T06:31:36.259Z,99015.27
2018-03-03T06:34:04.128Z,99014.50
2018-03-03T06:36:31.649Z,99008.94
2018-03-03T06:38:59.141Z,99016.67
2018-03-03T06:41:26.626Z,99015.28
2018-03-03T06:43:54.128Z,99019.25
2018-03-03T06:46:27.409Z,99015.69
2018-03-03T06:48:54.926Z,99004.96
2018-03-03T06:51:22.454Z,99011.20
2018-03-03T06:53:49.964Z,99013.88
2018-03-03T06:56:17.484Z,99018.37
2018-03-03T06:58:45.003Z,99016.58
2018-03-03T07:01:12.522Z,99018.16
2018-03-03T07:03:40.022Z,99021.62
2018-03-03T07:06:07.507Z,99025.59
2018-03-03T07:08:34.983Z,99030.07
2018-03-03T07:11:02.473Z,99034.91
2018-03-03T07:13:29.929Z,99029.95
2018-03-03T07:15:57.465Z,99031.75
2018-03-03T07:18:24.872Z,99033.44
2018-03-03T07:20:52.375Z,99039.17
2018-03-03T07:23:19.822Z,99040.47
2018-03-03T07:25:47.271Z,99042.27
2018-03-03T07:28:14.750Z,99049.02
2018-03-03T07:30:42.178Z,99047.42
2018-03-03T07:33:09.650Z,99042.45
2018-03-03T07:35:37.088Z,99049.18
2018-03-03T07:38:04.523Z,99043.23
2018-03-03T07:40:34.063Z,99047.27
2018-03-03T07:43:02.385Z,99046.78
2018-03-03T07:45:31.572Z,99045.94
2018-03-03T07:47:59.003Z,99043.43
2018-03-03T07:50:26.451Z,99044.74
2018-03-03T07:52:53.911Z,99052.91
2018-03-03T07:55:21.357Z,99050.70
2018-03-03T07:57:49.115Z,99052.90
2018-03-03T08:00:17.203Z,99058.95
2018-03-03T08:02:44.747Z,99053.97
2018-03-03T08:05:12.260Z,99046.91
2018-03-03T08:07:39.742Z,99051.30
2018-03-03T08:10:07.263Z,99039.73
2018-03-03T08:12:34.767Z,99041.48
2018-03-03T08:15:02.267Z,99045.27
2018-03-03T08:17:29.755Z,99047.83
2018-03-03T08:19:57.199Z,99049.73
2018-03-03T08:22:24.641Z,99042.63
2018-03-03T08:24:52.111Z,99042.20
2018-03-03T08:27:19.567Z,99038.02
2018-03-03T08:29:47.043Z,99040.70
2018-03-03T08:32:14.509Z,99040.94
2018-03-03T08:34:41.977Z,99037.36
2018-03-03T08:37:09.465Z,99026.23
2018-03-03T08:39:36.976Z,99031.61
2018-03-03T08:42:04.469Z,99024.72
2018-03-03T08:44:31.931Z,99029.65
2018-03-03T08:46:59.395Z,99029.42
2018-03-03T08:49:26.853Z,99025.98
2018-03-03T08:51:54.330Z,99023.28
2018-03-03T08:54:21.802Z,99025.39
2018-03-03T08:56:54.153Z,99021.53
2018-03-03T08:59:21.609Z,99032.34
2018-03-03T09:01:49.084Z,99025.68
2018-03-03T09:04:16.593Z,99030.67
2018-03-03T09:06:44.067Z,99036.38
2018-03-03T09:09:11.549Z,99033.68
2018-03-03T09:11:39.013Z,99028.30
2018-03-03T09:14:06.459Z,99022.63
2018-03-03T09:16:33.957Z,99028.41
2018-03-03T09:19:01.436Z,99038.21
2018-03-03T09:21:28.942Z,99031.09
2018-03-03T09:23:56.449Z,99031.84
2018-03-03T09:26:23.937Z,99029.70
2018-03-03T09:28:51.482Z,99022.07
2018-03-03T09:31:18.927Z,99028.00
2018-03-03T09:33:46.421Z,99016.88
2018-03-03T09:36:13.916Z,99015.44
2018-03-03T09:38:41.444Z,99025.20
2018-03-03T09:41:08.915Z,99020.37
2018-03-03T09:43:36.431Z,99019.67
2018-03-03T09:46:03.882Z,99012.30
2018-03-03T09:48:31.343Z,99012.50
2018-03-03T09:50:58.843Z,99020.77
2018-03-03T09:53:26.431Z,99018.87
2018-03-03T09:55:53.930Z,99013.81
2018-03-03T09:58:21.385Z,99010.73
2018-03-03T10:00:48.843Z,99009.64
2018-03-03T10:03:16.406Z,99015.38
2018-03-03T10:05:43.843Z,99007.70
2018-03-03T10:08:11.326Z,99010.77
2018-03-03T10:10:38.807Z,99005.90
2018-03-03T10:13:06.332Z,99007.52
2018-03-03T10:15:33.780Z,99004.42
2018-03-03T10:18:01.269Z,98999.46
2018-03-03T10:20:28.787Z,99001.89
2018-03-03T10:22:56.236Z,98998.27
2018-03-03T10:25:23.700Z,98993.93
2018-03-03T10:27:51.167Z,98998.41
2018-03-03T10:30:18.637Z,98988.05
2018-03-03T10:32:46.151Z,98998.27
2018-03-03T10:35:13.617Z,98995.95
2018-03-03T10:37:41.090Z,99008.39
2018-03-03T10:40:08.613Z,98990.77
2018-03-03T10:42:36.080Z,99000.17
2018-03-03T10:45:03.591Z,99004.83
2018-03-03T10:47:31.097Z,99006.08
2018-03-03T10:49:58.551Z,99004.78
2018-03-03T10:52:26.033Z,99004.48
2018-03-03T10:54:53.467Z,99012.55
2018-03-03T10:57:20.952Z,99009.22
2018-03-03T10:59:48.404Z,99007.91
2018-03-03T11:02:15.997Z,98999.99
2018-03-03T11:04:43.470Z,99004.41
2018-03-03T11:07:10.975Z,99004.10
2018-03-03T11:09:38.485Z,98997.48
2018-03-03T11:12:06.052Z,98986.70
2018-03-03T11:14:33.521Z,98984.59
2018-03-03T11:17:01.108Z,98986.11
2018-03-03T11:19:28.539Z,98986.45
2018-03-03T11:21:56.041Z,98989.16
2018-03-03T11:24:23.499Z,98987.13
2018-03-03T11:26:51.050Z,98992.52
2018-03-03T11:29:18.519Z,98981.06
2018-03-03T11:31:46.039Z,98990.26
2018-03-03T11:34:13.488Z,98978.22
2018-03-03T11:36:40.984Z,98977.30
2018-03-03T11:39:08.432Z,98986.85
2018-03-03T11:41:36.157Z,98984.28
2018-03-03T11:44:03.634Z,98976.39
2018-03-03T11:46:31.090Z,98969.23
2018-03-03T11:48:58.572Z,98973.95
2018-03-03T11:51:26.059Z,98974.75
2018-03-03T11:53:53.543Z,98982.88
2018-03-03T11:56:21.086Z,98974.67
2018-03-03T11:58:48.552Z,98972.52
2018-03-03T12:01:16.002Z,98978.32
2018-03-03T12:03:43.447Z,98974.97
2018-03-03T12:06:10.923Z,98973.29
2018-03-03T12:08:38.368Z,98980.62
2018-03-03T12:11:05.903Z,98979.53
2018-03-03T12:13:33.381Z,98976.27
2018-03-03T12:16:00.885Z,98971.75
2018-03-03T12:18:28.339Z,98973.80
2018-03-03T12:20:55.861Z,98974.98
2018-03-03T12:23:23.324Z,98970.83
2018-03-03T12:25:50.793Z,98977.92
2018-03-03T12:28:18.257Z,98976.50
2018-03-03T12:30:45.768Z,98976.85
2018-03-03T12:33:13.221Z,98971.34
2018-03-03T12:35:40.757Z,98971.78
2018-03-03T12:38:08.225Z,98973.24
2018-03-03T12:40:35.685Z,98968.02
2018-03-03T12:43:03.184Z,98963.34
2018-03-03T12:45:30.705Z,98970.68
2018-03-03T12:47:58.203Z,98956.58
2018-03-03T12:50:25.679Z,98965.49
2018-03-03T12:52:53.196Z,98955.88
2018-03-03T12:55:20.667Z,98961.81
2018-03-03T12:57:48.134Z,98954.52
2018-03-03T13:00:15.707Z,98954.19
2018-03-03T13:02:43.154Z,98954.31
2018-03-03T13:05:10.600Z,98949.78
2018-03-03T13:07:38.167Z,98950.50
2018-03-03T13:10:05.639Z,98949.41
2018-03-03T13:12:33.136Z,98948.76
2018-03-03T13:15:00.702Z,98951.89
2018-03-03T13:17:28.241Z,98955.90
2018-03-03T13:19:55.716Z,98963.94
2018-03-03T13:22:23.153Z,98956.95
2018-03-03T13:24:51.677Z,98954.56
2018-03-03T13:27:19.251Z,98956.23
2018-03-03T13:29:46.724Z,98949.52
2018-03-03T13:32:14.218Z,98949.34
2018-03-03T13:34:41.709Z,98948.35
2018-03-03T13:37:09.175Z,98947.35
2018-03-03T13:39:36.629Z,98949.78
2018-03-03T13:42:04.157Z,98956.37
2018-03-03T13:44:31.635Z,98945.87
2018-03-03T13:46:59.090Z,98942.56
2018-03-03T13:49:26.671Z,98940.06
2018-03-03T13:51:54.160Z,98941.85
2018-03-03T13:54:21.746Z,98938.59
2018-03-03T13:56:49.228Z,98942.08
2018-03-03T13:59:16.663Z,98932.88
2018-03-03T14:01:44.150Z,98933.38
2018-03-03T14:04:11.689Z,98927.86
2018-03-03T14:06:39.156Z,98937.08
2018-03-03T14:09:06.658Z,98939.53
2018-03-03T14:11:34.137Z,98942.27
2018-03-03T14:14:01.693Z,98952.92
2018-03-03T14:16:29.162Z,98952.83
2018-03-03T14:18:56.696Z,98947.64
2018-03-03T14:21:24.338Z,98948.13
2018-03-03T14:23:52.068Z,98948.39
2018-03-03T14:26:19.588Z,98950.85
2018-03-03T14:28:47.082Z,98946.81
2018-03-03T14:31:14.580Z,98954.05
2018-03-03T14:33:42.692Z,98962.52
2018-03-03T14:36:10.198Z,98962.03
2018-03-03T14:38:37.681Z,98963.64
2018-03-03T14:41:05.120Z,98967.02
2018-03-03T14:43:32.664Z,98967.67
2018-03-03T14:46:00.105Z,98964.64
2018-03-03T14:48:27.563Z,98963.83
2018-03-03T14:50:55.056Z,98971.28
2018-03-03T14:53:22.512Z,98977.55
2018-03-03T14:55:50.067Z,98968.60
2018-03-03T14:58:17.526Z,98970.56
2018-03-03T15:00:45.052Z,98972.93
2018-03-03T15:03:12.514Z,98978.34
2018-03-03T15:05:40.032Z,98981.12
2018-03-03T15:08:07.504Z,98974.52
2018-03-03T15:10:35.054Z,98981.43
2018-03-03T15:13:02.576Z,98982.02
2018-03-03T15:15:30.102Z,98978.89
2018-03-03T15:17:57.588Z,98993.91
2018-03-03T15:20:25.064Z,98995.48
2018-03-03T15:22:52.522Z,98997.13
2018-03-03T15:25:20.039Z,99000.24
2018-03-03T15:27:47.568Z,99004.89
2018-03-03T15:30:14.967Z,99012.83
2018-03-03T15:32:42.447Z,99010.86
2018-03-03T15:35:09.990Z,99010.91
2018-03-03T15:37:37.468Z,99008.14
2018-03-03T15:40:04.961Z,99008.17
2018-03-03T15:42:32.445Z,99005.94
2018-03-03T15:44:59.889Z,99006.19
2018-03-03T15:47:27.343Z,98994.23
2018-03-03T15:49:54.832Z,98997.63
2018-03-03T15:52:22.269Z,98999.19
2018-03-03T15:54:49.743Z,99009.38
2018-03-03T15:57:17.301Z,99014.48
2018-03-03T15:59:44.759Z,99016.03
2018-03-03T16:02:12.313Z,99023.59
2018-03-03T16:04:39.780Z,99018.86
2018-03-03T16:07:07.325Z,99033.13
2018-03-03T16:09:34.795Z,99043.53
2018-03-03T16:12:02.274Z,99044.21
2018-03-03T16:14:29.783Z,99045.64
2018-03-03T16:16:57.425Z,99049.31
2018-03-03T16:19:25.021Z,99050.02
2018-03-03T16:21:52.575Z,99056.16
2018-03-03T16:24:20.096Z,99068.08
2018-03-03T16:26:47.577Z,99071.22
2018-03-03T16:29:15.073Z,99070.62
2018-03-03T16:31:42.567Z,99062.00
2018-03-03T16:34:10.017Z,99056.59
2018-03-03T16:36:37.515Z,99060.28
2018-03-03T16:39:04.978Z,99050.80
2018-03-03T16:41:32.426Z,99053.80
2018-03-03T16:43:59.863Z,99059.43
2018-03-03T16:46:27.339Z,99058.59
2018-03-03T16:48:54.963Z,99060.65
2018-03-03T16:51:23.199Z,99064.31
2018-03-03T16:53:50.659Z,99059.14
2018-03-03T16:56:18.167Z,99049.61
2018-03-03T16:58:45.644Z,99058.21
2018-03-03T17:01:13.105Z,99052.10
2018-03-03T17:03:40.574Z,99055.04
2018-03-03T17:06:08.032Z,99054.88
2018-03-03T17:08:35.578Z,99059.55
2018-03-03T17:11:03.034Z,99057.88
2018-03-03T17:13:30.496Z,99055.73
2018-03-03T17:15:57.972Z,99054.56
2018-03-03T17:18:25.428Z,99050.48
2018-03-03T17:20:52.895Z,99060.79
2018-03-03T17:23:20.334Z,99060.55
2018-03-03T17:25:47.802Z,99061.69
2018-03-03T17:28:15.247Z,99055.42
2018-03-03T17:30:42.700Z,99057.66
2018-03-03T17:33:10.183Z,99059.66
2018-03-03T17:35:37.641Z,99053.95
2018-03-03T17:38:05.115Z,99055.95
2018-03-03T17:40:32.571Z,99060.72
2018-03-03T17:43:00.053Z,99061.98
2018-03-03T17:45:27.587Z,99064.75
2018-03-03T17:47:55.080Z,99070.45
2018-03-03T17:50:22.616Z,99068.90
2018-03-03T17:52:50.047Z,99078.47
2018-03-03T17:55:18.008Z,99079.68
2018-03-03T17:57:45.505Z,99082.94
2018-03-03T18:00:12.975Z,99087.13
2018-03-03T18:02:40.448Z,99088.67
2018-03-03T18:05:07.896Z,99088.75
2018-03-03T18:07:35.393Z,99090.29
2018-03-03T18:10:02.870Z,99089.84
2018-03-03T18:12:30.348Z,99096.83
2018-03-03T18:14:57.801Z,99095.52
2018-03-03T18:17:25.273Z,99101.23
2018-03-03T18:19:52.750Z,99101.92
2018-03-03T18:22:20.245Z,99104.65
2018-03-03T18:24:47.687Z,99111.72
2018-03-03T18:27:15.193Z,99111.70
2018-03-03T18:29:42.676Z,99111.61
2018-03-03T18:32:10.131Z,99122.27
2018-03-03T18:34:37.618Z,99119.49
2018-03-03T18:37:05.087Z,99118.42
2018-03-03T18:39:32.535Z,99122.89
2018-03-03T18:42:00.010Z,99130.52
2018-03-03T18:44:27.555Z,99126.56
2018-03-03T18:46:55.008Z,99125.19
2018-03-03T18:49:22.500Z,99123.48
2018-03-03T18:51:49.965Z,99121.22
2018-03-03T18:54:17.474Z,99118.69
2018-03-03T18:56:46.106Z,99125.94
2018-03-03T18:59:13.635Z,99126.11
2018-03-03T19:01:41.165Z,99130.20
2018-03-03T19:04:08.608Z,99127.73
2018-03-03T19:06:36.146Z,99123.45
2018-03-03T19:09:03.624Z,99120.04
2018-03-03T19:11:31.097Z,99124.72
2018-03-03T19:13:58.572Z,99118.27
2018-03-03T19:16:26.103Z,99119.13
2018-03-03T19:18:53.567Z,99132.43
2018-03-03T19:21:21.059Z,99126.73
2018-03-03T19:23:48.528Z,99129.73
2018-03-03T19:26:15.993Z,99129.72
2018-03-03T19:28:43.593Z,99127.73
2018-03-03T19:31:11.027Z,99128.33
2018-03-03T19:33:38.524Z,99139.70
2018-03-03T19:36:05.990Z,99136.57
2018-03-03T19:38:33.451Z,99143.20
2018-03-03T19:41:00.930Z,99135.41
2018-03-03T19:43:28.380Z,99139.53
2018-03-03T19:45:55.905Z,99144.22
2018-03-03T19:48:24.041Z,99146.21
2018-03-03T19:50:51.534Z,99147.45
2018-03-03T19:53:20.151Z,99142.91
2018-03-03T19:55:47.692Z,99142.68
2018-03-03T19:58:15.200Z,99141.30
2018-03-03T20:00:42.646Z,99136.23
2018-03-03T20:03:10.111Z,99135.17
2018-03-03T20:05:37.687Z,99132.81
2018-03-03T20:08:05.184Z,99127.44
2018-03-03T20:10:32.750Z,99134.00
2018-03-03T20:13:00.209Z,99135.53
2018-03-03T20:15:27.687Z,99140.73
2018-03-03T20:17:55.129Z,99138.73
2018-03-03T20:20:22.638Z,99140.09
2018-03-03T20:22:50.092Z,99138.13
2018-03-03T20:25:17.608Z,99135.70
2018-03-03T20:27:45.059Z,99134.95
2018-03-03T20:30:12.539Z,99130.50
2018-03-03T20:32:40.035Z,99136.31
2018-03-03T20:35:07.489Z,99127.55
2018-03-03T20:37:34.938Z,99130.27
2018-03-03T20:40:02.457Z,99130.88
2018-03-03T20:42:29.901Z,99118.88
2018-03-03T20:44:57.408Z,99121.77
2018-03-03T20:47:24.994Z,99124.14
2018-03-03T20:49:52.583Z,99123.89
2018-03-03T20:52:20.003Z,99135.84
2018-03-03T20:54:47.481Z,99139.20
2018-03-03T20:57:14.962Z,99147.72
2018-03-03T20:59:42.417Z,99150.27
2018-03-03T21:02:09.913Z,99148.73
2018-03-03T21:04:38.271Z,99144.05
2018-03-03T21:07:05.752Z,99140.98
2018-03-03T21:09:33.237Z,99138.80
2018-03-03T21:12:13.382Z,99140.03
2018-03-03T21:14:40.838Z,99136.13
2018-03-03T21:17:08.321Z,99141.57
2018-03-03T21:19:35.888Z,99141.34
2018-03-03T21:22:03.374Z,99141.51
2018-03-03T21:24:30.836Z,99136.97
2018-03-03T21:26:58.445Z,99139.31
2018-03-03T21:29:25.893Z,99137.38
2018-03-03T21:31:53.431Z,99135.95
2018-03-03T21:34:20.885Z,99131.10
2018-03-03T21:36:49.233Z,99133.18
2018-03-03T21:39:16.716Z,99134.42
2018-03-03T21:41:44.199Z,99128.67
2018-03-03T21:44:11.688Z,99134.02
2018-03-03T21:46:39.296Z,99134.13
2018-03-03T21:49:06.882Z,99136.67
2018-03-03T21:51:34.471Z,99142.85
2018-03-03T21:54:01.983Z,99140.74
2018-03-03T21:56:29.559Z,99144.69
2018-03-03T21:58:57.024Z,99145.77
2018-03-03T22:01:24.525Z,99151.30
2018-03-03T22:03:51.986Z,99144.28
2018-03-03T22:06:24.466Z,99141.03
2018-03-03T22:08:51.942Z,99145.77
2018-03-03T22:11:19.431Z,99147.87
2018-03-03T22:13:46.909Z,99147.58
2018-03-03T22:16:14.367Z,99153.51
2018-03-03T22:18:41.939Z,99149.00
2018-03-03T22:21:09.392Z,99142.97
2018-03-03T22:23:36.876Z,99147.19
2018-03-03T22:26:04.330Z,99156.34
2018-03-03T22:28:31.804Z,99148.17
2018-03-03T22:30:59.300Z,99152.19
2018-03-03T22:33:26.740Z,99149.53
2018-03-03T22:35:54.233Z,99148.35
2018-03-03T22:38:21.676Z,99142.50
2018-03-03T22:40:49.142Z,99140.39
2018-03-03T22:43:16.594Z,99140.07
2018-03-03T22:45:44.983Z,99141.55
2018-03-03T22:48:12.424Z,99136.41
2018-03-03T22:50:39.887Z,99137.59
2018-03-03T22:53:07.435Z,99140.86
2018-03-03T22:55:34.898Z,99137.19
2018-03-03T22:58:02.656Z,99138.36
2018-03-03T23:00:31.186Z,99141.80
2018-03-03T23:02:58.662Z,99147.05
2018-03-03T23:05:26.099Z,99150.25
2018-03-03T23:07:53.568Z,99145.71
2018-03-03T23:10:21.010Z,99144.92
2018-03-03T23:12:48.472Z,99144.45
2018-03-03T23:15:15.923Z,99147.05
2018-03-03T23:17:43.369Z,99142.09
2018-03-03T23:20:10.901Z,99153.06
2018-03-03T23:22:38.398Z,99150.00
2018-03-03T23:25:05.935Z,99153.05
2018-03-03T23:27:33.934Z,99150.81
2018-03-03T23:30:01.393Z,99150.77
2018-03-03T23:32:28.830Z,99153.36
2018-03-03T23:34:56.308Z,99149.02
2018-03-03T23:37:23.882Z,99151.62
2018-03-03T23:39:51.335Z,99156.18
2018-03-03T23:42:18.827Z,99150.04
2018-03-03T23:44:46.291Z,99145.19
2018-03-03T23:47:13.716Z,99143.47
2018-03-03T23:49:41.178Z,99153.84
2018-03-03T23:52:08.620Z,99151.08
2018-03-03T23:54:36.097Z,99160.13
2018-03-03T23:57:03.532Z,99157.74
2018-03-03T23:59:30.965Z,99159.70
